Time;durP1;ratioP1;P1;durP2;ratioP2;P2;SDS_P1;SDS_P2;PMS_P1;PMS_P2;Temp;Humidity;BMP_temperature;BMP_pressure;BME280_temperature;BME280_humidity;BME280_pressure;Samples;Min_cycle;Max_cycle;Signal;HPM_P1;HPM_P2
2021/07/13 00:01:30;;;;;;;14.50;10.88;;;;;;;17.05;79.73;99794.39;2168531;79;21157;-78
2021/07/13 00:04:35;;;;;;;16.70;11.80;;;;;;;17.02;79.74;99792.96;2180073;79;21046;-78
2021/07/13 00:07:36;;;;;;;13.13;10.40;;;;;;;16.98;79.75;99785.88;2187226;79;21058;-78
2021/07/13 00:10:41;;;;;;;12.15;10.80;;;;;;;16.97;79.79;99780.72;2173515;79;21550;-81
2021/07/13 00:13:43;;;;;;;14.87;11.08;;;;;;;16.95;79.78;99774.26;2157135;79;22203;-79
2021/07/13 00:16:45;;;;;;;12.43;11.12;;;;;;;16.95;79.82;99772.92;2177142;79;21117;-77
2021/07/13 00:19:46;;;;;;;13.13;10.95;;;;;;;16.91;79.85;99770.34;2177856;79;21545;-77
2021/07/13 00:22:48;;;;;;;16.57;11.18;;;;;;;16.88;79.99;99772.66;2164529;79;21095;-78
2021/07/13 00:25:50;;;;;;;12.80;10.08;;;;;;;16.85;80.00;99773.91;2169230;79;21020;-77
2021/07/13 00:28:52;;;;;;;12.90;9.93;;;;;;;16.82;80.12;99767.64;2182143;80;21067;-81
2021/07/13 00:31:53;;;;;;;16.20;10.85;;;;;;;16.78;80.08;99762.39;2171447;79;21063;-77
2021/07/13 00:34:55;;;;;;;12.00;10.63;;;;;;;16.74;80.16;99771.87;2186328;79;21030;-79
2021/07/13 00:37:56;;;;;;;14.25;10.35;;;;;;;16.68;80.38;99776.77;2183144;79;21007;-78
2021/07/13 00:41:01;;;;;;;17.48;11.85;;;;;;;16.64;80.32;99767.00;2178109;79;21131;-77
2021/07/13 00:44:03;;;;;;;14.60;11.40;;;;;;;16.58;80.50;99765.16;2178809;79;21052;-77
2021/07/13 00:47:05;;;;;;;15.25;11.33;;;;;;;16.49;80.48;99762.43;2177312;79;21089;-78
2021/07/13 00:50:09;;;;;;;13.93;10.93;;;;;;;16.42;80.71;99769.69;2143644;79;20990;-79
2021/07/13 00:53:10;;;;;;;17.80;10.98;;;;;;;16.32;80.79;99769.61;2145519;80;21107;-78
2021/07/13 00:56:12;;;;;;;18.23;10.28;;;;;;;16.26;80.79;99769.12;2184727;79;21111;-76
2021/07/13 00:59:14;;;;;;;13.55;9.68;;;;;;;16.20;81.11;99763.81;2174713;79;22279;-76
2021/07/13 01:02:17;;;;;;;15.15;8.90;;;;;;;16.15;81.05;99761.76;2179089;80;21017;-80
2021/07/13 01:05:24;;;;;;;16.07;10.43;;;;;;;16.13;80.98;99753.11;2175791;79;21025;-76
2021/07/13 01:08:52;;;;;;;16.55;9.80;;;;;;;16.13;80.92;99758.46;2153443;80;21081;-76
2021/07/13 01:12:14;;;;;;;14.05;9.90;;;;;;;16.14;80.94;99750.76;2173552;80;21108;-76
2021/07/13 01:15:19;;;;;;;13.53;9.40;;;;;;;16.08;80.84;99748.41;2177567;79;21031;-78
2021/07/13 01:18:27;;;;;;;15.35;9.55;;;;;;;16.06;80.85;99754.48;2182711;79;21363;-76
2021/07/13 01:21:56;;;;;;;13.30;9.50;;;;;;;16.02;80.97;99751.94;2180132;79;21846;-78
2021/07/13 01:25:08;;;;;;;18.82;10.38;;;;;;;15.99;80.99;99760.88;2166931;79;21126;-77
2021/07/13 01:28:19;;;;;;;17.02;10.23;;;;;;;15.99;81.06;99750.17;2158329;79;21436;-77
2021/07/13 01:31:22;;;;;;;13.05;8.15;;;;;;;15.97;81.05;99742.90;2160092;80;21576;-77
2021/07/13 01:34:38;;;;;;;13.78;8.90;;;;;;;15.98;81.38;99745.88;2148146;79;21070;-77
2021/07/13 01:37:44;;;;;;;13.38;8.90;;;;;;;15.96;81.21;99748.74;2180219;79;21132;-77
2021/07/13 01:40:51;;;;;;;15.65;9.68;;;;;;;15.93;81.09;99748.34;2163758;79;21080;-77
2021/07/13 01:43:55;;;;;;;14.15;8.65;;;;;;;15.96;81.31;99742.58;2175447;79;21081;-78
2021/07/13 01:46:57;;;;;;;11.65;8.20;;;;;;;15.96;81.14;99733.21;2169392;79;21100;-76
2021/07/13 01:50:02;;;;;;;11.03;9.03;;;;;;;15.90;81.44;99731.68;2165563;80;21668;-77
2021/07/13 01:53:06;;;;;;;11.22;9.55;;;;;;;15.90;81.33;99734.87;2170315;79;21081;-77
2021/07/13 01:56:10;;;;;;;16.97;9.48;;;;;;;15.87;81.22;99741.47;2171715;80;21091;-77
2021/07/13 01:59:16;;;;;;;14.00;8.38;;;;;;;15.81;81.15;99740.16;2156413;79;21568;-76
2021/07/13 02:02:18;;;;;;;15.08;8.83;;;;;;;15.71;81.18;99747.30;2184446;79;21552;-78
2021/07/13 02:05:20;;;;;;;18.40;9.78;;;;;;;15.70;81.29;99749.64;2180970;79;21033;-78
2021/07/13 02:08:23;;;;;;;18.80;9.50;;;;;;;15.73;81.37;99755.09;2178263;79;21069;-76
2021/07/13 02:11:28;;;;;;;11.70;8.55;;;;;;;15.73;81.34;99754.57;2175191;79;21489;-78
2021/07/13 02:14:31;;;;;;;22.52;9.48;;;;;;;15.73;81.36;99756.43;2171392;79;21043;-79
2021/07/13 02:17:33;;;;;;;19.00;8.40;;;;;;;15.70;81.37;99756.33;2181165;79;21011;-76
2021/07/13 02:20:35;;;;;;;20.23;9.95;;;;;;;15.70;81.44;99765.69;2179128;79;21042;-79
2021/07/13 02:23:37;;;;;;;16.48;9.90;;;;;;;15.66;81.46;99758.58;2152499;79;21056;-76
2021/07/13 02:27:02;;;;;;;11.33;7.90;;;;;;;15.64;81.50;99754.46;2166824;79;21125;-76
2021/07/13 02:30:07;;;;;;;16.60;9.60;;;;;;;15.59;81.55;99748.39;2133103;79;22230;-76
2021/07/13 02:33:17;;;;;;;16.82;9.10;;;;;;;15.54;81.65;99746.88;2149722;80;21588;-76
2021/07/13 02:36:22;;;;;;;15.18;9.30;;;;;;;15.52;81.80;99755.62;2170614;79;21675;-77
2021/07/13 02:39:24;;;;;;;16.20;9.98;;;;;;;15.51;81.86;99761.98;2179667;79;21050;-77
2021/07/13 02:42:28;;;;;;;16.75;9.98;;;;;;;15.53;81.86;99762.59;2179020;79;21042;-77
2021/07/13 02:45:31;;;;;;;16.52;9.30;;;;;;;15.53;81.91;99753.23;2153647;80;21517;-77
2021/07/13 02:48:38;;;;;;;16.62;9.50;;;;;;;15.53;81.85;99760.45;2156500;80;21068;-77
2021/07/13 02:51:41;;;;;;;14.20;10.30;;;;;;;15.53;81.91;99754.58;2140339;80;21281;-80
2021/07/13 02:54:45;;;;;;;11.28;8.90;;;;;;;15.53;82.00;99747.89;2124151;81;21133;-78
2021/07/13 02:57:47;;;;;;;17.50;9.60;;;;;;;15.55;81.96;99741.02;2121096;80;21053;-77
2021/07/13 03:00:50;;;;;;;15.75;8.63;;;;;;;15.52;81.92;99743.59;2143755;81;21086;-77
2021/07/13 03:03:52;;;;;;;15.58;9.53;;;;;;;15.49;81.92;99742.66;2146804;80;21117;-77
2021/07/13 03:06:54;;;;;;;13.70;9.58;;;;;;;15.42;81.94;99735.16;2146395;81;21096;-77
2021/07/13 03:09:57;;;;;;;21.02;8.93;;;;;;;15.44;82.03;99739.27;2124910;82;21402;-79
2021/07/13 03:12:59;;;;;;;11.10;9.25;;;;;;;15.46;82.04;99732.39;2102555;82;21136;-78
2021/07/13 03:16:02;;;;;;;18.42;9.78;;;;;;;15.46;81.99;99729.20;2115469;82;21022;-79
2021/07/13 03:19:05;;;;;;;24.00;9.95;;;;;;;15.50;82.04;99732.79;2115052;81;21108;-77
2021/07/13 03:22:15;;;;;;;16.20;9.33;;;;;;;15.53;82.03;99734.52;2116025;81;21149;-80
2021/07/13 03:25:19;;;;;;;16.30;9.57;;;;;;;15.55;81.92;99732.47;2168860;79;21077;-78
2021/07/13 03:28:22;;;;;;;13.78;9.58;;;;;;;15.54;81.93;99732.17;2168394;80;21664;-77
2021/07/13 03:31:27;;;;;;;16.75;8.60;;;;;;;15.56;82.04;99731.43;2182119;79;21092;-78
2021/07/13 03:34:30;;;;;;;17.27;8.18;;;;;;;15.75;82.21;99733.80;2161742;80;21078;-78
2021/07/13 03:37:33;;;;;;;16.25;9.63;;;;;;;16.01;81.95;99734.74;2184221;79;21036;-77
2021/07/13 03:40:35;;;;;;;13.60;9.25;;;;;;;16.34;81.94;99738.62;2180601;79;21111;-77
2021/07/13 03:43:37;;;;;;;13.25;8.98;;;;;;;16.56;81.38;99726.55;2151244;80;21122;-78
2021/07/13 03:46:39;;;;;;;17.82;8.68;;;;;;;16.75;81.00;99723.45;2100767;82;21193;-77
2021/07/13 03:49:42;;;;;;;14.83;8.30;;;;;;;16.90;80.81;99723.69;2086357;82;22481;-79
2021/07/13 03:52:44;;;;;;;12.75;9.35;;;;;;;17.16;80.69;99722.12;2175662;79;21035;-77
2021/07/13 03:55:46;;;;;;;17.40;8.98;;;;;;;17.39;80.29;99729.55;2170351;79;21049;-77
2021/07/13 03:58:48;;;;;;;10.98;8.28;;;;;;;17.79;80.45;99729.17;2163445;79;21076;-78
2021/07/13 04:01:50;;;;;;;14.70;7.85;;;;;;;18.19;79.81;99722.02;2165700;79;21005;-78
2021/07/13 04:04:51;;;;;;;17.40;8.13;;;;;;;18.62;79.39;99717.51;2183264;79;21025;-78
2021/07/13 04:07:53;;;;;;;20.55;8.30;;;;;;;18.90;78.55;99720.41;2176402;79;21092;-77
2021/07/13 04:10:54;;;;;;;13.95;8.20;;;;;;;19.26;77.99;99715.37;2188352;79;21030;-79
2021/07/13 04:13:56;;;;;;;19.62;8.23;;;;;;;19.55;77.49;99711.97;2170635;79;21073;-78
2021/07/13 04:16:57;;;;;;;17.70;7.92;;;;;;;19.82;76.71;99729.80;2169215;79;21685;-77
2021/07/13 04:19:59;;;;;;;13.08;8.18;;;;;;;19.86;75.76;99727.75;2174349;79;21125;-78
2021/07/13 04:23:01;;;;;;;17.77;7.65;;;;;;;19.92;75.01;99720.59;2183312;79;21026;-79
2021/07/13 04:26:05;;;;;;;18.48;7.78;;;;;;;20.02;74.16;99715.43;2166595;79;21077;-78
2021/07/13 04:29:06;;;;;;;12.55;7.50;;;;;;;20.00;73.48;99708.64;2162588;79;21109;-77
2021/07/13 04:32:08;;;;;;;12.40;8.43;;;;;;;19.98;73.54;99712.91;2122475;81;21854;-77
2021/07/13 04:35:10;;;;;;;11.97;8.00;;;;;;;20.04;73.86;99721.38;2135418;81;21100;-77
2021/07/13 04:38:12;;;;;;;11.12;7.97;;;;;;;20.01;73.34;99733.16;2153068;80;21569;-77
2021/07/13 04:41:13;;;;;;;14.38;8.40;;;;;;;20.08;73.08;99733.33;2134908;80;21077;-82
2021/07/13 04:44:15;;;;;;;18.07;8.40;;;;;;;20.13;73.16;99736.63;2137319;80;21018;-77
2021/07/13 04:47:16;;;;;;;16.37;7.85;;;;;;;20.26;72.99;99738.24;2136274;80;21107;-78
2021/07/13 04:50:18;;;;;;;17.30;8.88;;;;;;;20.48;72.86;99736.52;2151637;80;21084;-79
2021/07/13 04:53:19;;;;;;;16.60;9.18;;;;;;;20.73;72.73;99733.50;2126489;80;21125;-78
2021/07/13 04:56:21;;;;;;;12.58;7.78;;;;;;;20.96;72.50;99735.23;2150418;80;21101;-77
2021/07/13 04:59:22;;;;;;;15.60;7.92;;;;;;;21.14;71.87;99725.27;2142230;81;21057;-78
2021/07/13 05:02:24;;;;;;;16.65;7.97;;;;;;;21.33;71.65;99726.65;2131518;80;21061;-80
2021/07/13 05:05:26;;;;;;;14.05;8.95;;;;;;;21.35;70.60;99725.88;2135002;80;21070;-79
2021/07/13 05:08:27;;;;;;;17.65;8.55;;;;;;;21.36;70.77;99722.64;2107446;83;21081;-77
2021/07/13 05:11:29;;;;;;;15.65;9.20;;;;;;;21.46;70.46;99715.55;2108818;83;21391;-78
2021/07/13 05:14:31;;;;;;;12.75;7.70;;;;;;;21.55;70.04;99716.48;2118787;81;21084;-78
2021/07/13 05:17:33;;;;;;;15.60;9.13;;;;;;;21.74;69.48;99713.77;2107668;81;21080;-78
2021/07/13 05:20:37;;;;;;;13.50;8.73;;;;;;;21.70;70.22;99716.67;2108435;82;21151;-77
2021/07/13 05:23:39;;;;;;;16.93;9.15;;;;;;;21.92;69.51;99717.50;2113825;81;21085;-78
2021/07/13 05:26:40;;;;;;;22.90;9.43;;;;;;;22.08;69.00;99709.60;2114197;81;21116;-81
2021/07/13 05:29:43;;;;;;;19.75;9.45;;;;;;;21.79;68.33;99704.91;2103421;82;21070;-77
2021/07/13 05:32:45;;;;;;;14.20;8.63;;;;;;;21.99;68.65;99707.04;2189640;79;21054;-77
2021/07/13 05:35:47;;;;;;;17.57;8.63;;;;;;;22.41;69.21;99709.16;2134749;80;21085;-76
2021/07/13 05:38:49;;;;;;;15.85;9.00;;;;;;;22.63;68.46;99713.17;2111114;82;21039;-77
2021/07/13 05:41:51;;;;;;;12.93;7.90;;;;;;;22.74;67.52;99703.54;2166846;79;21678;-77
2021/07/13 05:44:52;;;;;;;14.87;8.98;;;;;;;22.98;67.70;99697.30;2175643;79;21030;-77
2021/07/13 05:47:54;;;;;;;20.37;8.70;;;;;;;23.29;67.05;99715.66;2172271;79;22412;-80
2021/07/13 05:50:55;;;;;;;13.20;8.78;;;;;;;23.29;66.72;99718.36;2173694;79;21089;-77
2021/07/13 05:53:57;;;;;;;15.15;9.00;;;;;;;23.56;66.90;99707.41;2175394;79;21037;-77
2021/07/13 05:56:59;;;;;;;12.10;9.10;;;;;;;23.73;65.70;99702.66;2175708;79;21039;-79
2021/07/13 06:00:07;;;;;;;12.80;8.95;;;;;;;23.89;66.04;99710.33;2151181;79;21580;-79
2021/07/13 06:03:11;;;;;;;13.03;8.70;;;;;;;24.19;65.64;99705.56;2181781;79;21614;-77
2021/07/13 06:06:12;;;;;;;17.05;9.30;;;;;;;24.31;64.57;99711.55;2163784;79;21116;-77
2021/07/13 06:09:17;;;;;;;14.43;8.90;;;;;;;24.18;63.46;99711.23;2117095;82;21700;-81
2021/07/13 06:12:18;;;;;;;18.77;9.95;;;;;;;23.97;63.82;99696.81;2174586;79;21056;-79
2021/07/13 06:15:20;;;;;;;14.50;8.83;;;;;;;23.99;64.12;99702.77;2179130;79;21770;-80
2021/07/13 06:18:22;;;;;;;17.80;9.53;;;;;;;24.16;63.85;99700.13;2172916;79;21557;-79
2021/07/13 06:21:23;;;;;;;15.93;9.48;;;;;;;24.36;63.55;99691.78;2158400;79;22260;-81
2021/07/13 06:24:25;;;;;;;13.08;8.83;;;;;;;24.61;64.19;99689.69;2162781;79;21080;-80
2021/07/13 06:27:26;;;;;;;15.00;9.38;;;;;;;25.03;63.17;99692.64;2177699;79;21058;-80
2021/07/13 06:30:28;;;;;;;13.65;10.20;;;;;;;25.20;62.78;99692.39;2188429;79;21062;-79
2021/07/13 06:33:30;;;;;;;18.40;9.95;;;;;;;25.26;61.52;99688.05;2177782;79;21042;-84
2021/07/13 06:36:31;;;;;;;16.15;9.13;;;;;;;25.38;62.21;99679.61;2165980;80;21049;-80
2021/07/13 06:39:33;;;;;;;14.45;8.95;;;;;;;25.94;62.42;99671.29;2174306;79;21095;-77
2021/07/13 06:42:35;;;;;;;16.87;9.00;;;;;;;26.38;61.12;99680.55;2131289;81;21051;-83
2021/07/13 06:45:38;;;;;;;13.78;8.68;;;;;;;26.72;60.66;99682.52;2187085;79;21050;-82
2021/07/13 06:48:40;;;;;;;14.85;9.40;;;;;;;27.12;59.55;99674.56;2186657;79;21330;-80
2021/07/13 06:51:42;;;;;;;16.48;9.20;;;;;;;26.91;58.29;99666.31;2174876;79;21049;-77
2021/07/13 06:54:48;;;;;;;12.58;9.53;;;;;;;26.64;58.40;99664.91;2161722;79;21595;-81
2021/07/13 06:57:49;;;;;;;17.27;8.88;;;;;;;26.45;57.51;99653.05;2159227;79;21572;-77
2021/07/13 07:00:51;;;;;;;13.60;8.78;;;;;;;25.83;57.84;99645.25;2137620;81;21596;-79
2021/07/13 07:03:53;;;;;;;16.60;9.75;;;;;;;25.60;58.85;99645.88;2171525;79;22179;-79
2021/07/13 07:06:54;;;;;;;16.37;9.30;;;;;;;25.82;58.74;99643.61;2172180;79;21148;-76
2021/07/13 07:09:56;;;;;;;11.78;9.00;;;;;;;25.97;59.03;99633.23;2170957;79;21583;-76
2021/07/13 07:12:57;;;;;;;13.15;9.30;;;;;;;26.32;58.71;99639.53;2173805;79;21076;-76
2021/07/13 07:15:59;;;;;;;13.70;8.88;;;;;;;26.30;58.46;99642.55;2187694;79;21054;-79
2021/07/13 07:19:00;;;;;;;13.22;10.60;;;;;;;26.26;57.99;99629.23;2168987;79;21091;-75
2021/07/13 07:22:02;;;;;;;15.53;10.40;;;;;;;26.31;57.22;99633.84;2099064;83;21581;-78
2021/07/13 07:25:06;;;;;;;13.53;10.75;;;;;;;26.28;58.40;99635.21;2107943;81;21087;-79
2021/07/13 07:28:11;;;;;;;10.82;9.73;;;;;;;26.39;56.94;99636.77;2118062;81;21058;-79
2021/07/13 07:31:14;;;;;;;18.80;10.43;;;;;;;26.45;57.81;99634.02;2103694;82;21102;-81
2021/07/13 07:34:19;;;;;;;12.60;10.28;;;;;;;26.58;57.75;99632.02;2111295;81;21880;-79
2021/07/13 07:37:20;;;;;;;14.40;11.55;;;;;;;26.70;57.35;99628.39;2117434;81;21079;-79
2021/07/13 07:40:22;;;;;;;15.75;10.28;;;;;;;26.88;57.17;99624.69;2103211;81;21101;-78
2021/07/13 07:43:23;;;;;;;10.72;9.33;;;;;;;26.91;57.56;99626.84;2113076;81;22670;-81
2021/07/13 07:46:25;;;;;;;17.20;10.93;;;;;;;27.06;57.07;99636.23;2109995;82;21114;-77
2021/07/13 07:49:26;;;;;;;14.47;12.15;;;;;;;27.02;55.53;99640.61;2162401;79;21033;-78
2021/07/13 07:52:28;;;;;;;14.55;11.78;;;;;;;26.97;56.37;99642.02;2164136;80;21058;-79
2021/07/13 07:59:52;;;;;;;15.08;11.83;;;;;;;26.85;56.03;99635.60;2178877;79;21069;-79
2021/07/13 08:02:54;;;;;;;17.20;12.05;;;;;;;27.07;56.00;99628.31;2162815;79;21064;-81
2021/07/13 08:05:56;;;;;;;;;;;;;;;27.05;54.96;99630.51;2184196;79;21094;-80
2021/07/13 08:08:58;;;;;;;13.18;11.80;;;;;;;26.80;55.08;99632.37;2177205;79;20214;-81
2021/07/13 08:11:59;;;;;;;12.78;10.80;;;;;;;26.87;56.11;99629.33;2154300;79;21571;-79
2021/07/13 08:15:01;;;;;;;14.00;10.72;;;;;;;27.04;55.71;99627.53;2174156;79;21666;-79
2021/07/13 08:18:03;;;;;;;15.75;11.75;;;;;;;27.35;56.39;99623.97;2167383;79;21026;-81
2021/07/13 08:21:05;;;;;;;15.05;12.95;;;;;;;27.87;56.07;99628.25;2178067;79;21047;-80
2021/07/13 08:24:08;;;;;;;15.15;10.85;;;;;;;28.19;54.76;99629.45;2158892;79;21082;-78
2021/07/13 08:27:11;;;;;;;14.33;10.13;;;;;;;28.37;55.14;99633.52;2186045;79;21668;-78
2021/07/13 08:30:14;;;;;;;21.65;11.18;;;;;;;28.48;54.33;99634.20;2174525;79;21062;-80
2021/07/13 08:33:16;;;;;;;12.47;9.60;;;;;;;28.62;53.57;99633.45;2175502;79;21151;-77
2021/07/13 08:36:18;;;;;;;9.55;8.58;;;;;;;28.72;52.39;99620.45;2165840;79;21151;-78
2021/07/13 08:39:23;;;;;;;12.47;9.13;;;;;;;28.72;52.57;99620.45;2152846;80;21070;-81
2021/07/13 08:42:25;;;;;;;16.12;8.08;;;;;;;28.83;52.90;99621.05;2165297;79;21078;-79
2021/07/13 08:45:26;;;;;;;11.63;8.45;;;;;;;28.99;52.21;99627.06;2168913;79;21056;-80
2021/07/13 08:48:28;;;;;;;10.45;8.58;;;;;;;28.69;51.08;99625.67;2167345;79;21142;-81
2021/07/13 08:51:30;;;;;;;12.53;8.63;;;;;;;28.65;51.61;99616.47;2184582;79;21094;-80
2021/07/13 08:54:36;;;;;;;14.00;9.28;;;;;;;28.52;52.00;99605.23;2181503;79;21073;-78
2021/07/13 08:57:44;;;;;;;9.85;8.75;;;;;;;28.75;52.42;99610.85;2177306;79;21023;-79
2021/07/13 09:00:43;;;;;;;10.43;8.30;;;;;;;28.65;51.30;99620.01;2184460;79;21057;-79
2021/07/13 09:04:04;;;;;;;16.10;8.98;;;;;;;28.81;52.03;99606.36;2163528;79;21054;-79
2021/07/13 09:07:13;;;;;;;16.02;8.68;;;;;;;29.04;51.66;99611.42;2173169;79;21074;-80
2021/07/13 09:10:15;;;;;;;11.18;8.58;;;;;;;28.86;51.31;99611.45;2181197;79;21130;-77
2021/07/13 09:13:24;;;;;;;13.00;8.68;;;;;;;28.90;50.64;99607.03;2172195;79;21007;-79
2021/07/13 09:16:46;;;;;;;;;;;;;;;;;;;;;
2021/07/13 09:19:36;;;;;;;12.45;8.80;;;;;;;29.15;50.17;99612.61;2158257;79;21089;-79
2021/07/13 09:22:43;;;;;;;10.35;7.10;;;;;;;29.48;51.49;99607.30;2181102;79;21498;-79
2021/07/13 09:25:50;;;;;;;12.65;7.35;;;;;;;29.61;48.76;99602.91;2170872;80;21139;-79
2021/07/13 09:28:48;;;;;;;11.25;9.05;;;;;;;29.61;48.76;99602.91;2151155;80;21608;-78
2021/07/13 09:31:49;;;;;;;13.93;6.92;;;;;;;29.52;50.21;99595.19;2137874;81;21080;-80
2021/07/13 09:35:14;;;;;;;8.38;7.33;;;;;;;29.49;49.10;99602.07;2097906;83;21086;-78
2021/07/13 09:38:21;;;;;;;15.28;7.92;;;;;;;29.42;49.81;99597.56;2106921;81;21116;-75
2021/07/13 09:41:32;;;;;;;11.25;7.60;;;;;;;29.65;49.73;99601.77;2095834;83;21057;-76
2021/07/13 09:44:33;;;;;;;10.10;6.92;;;;;;;29.69;50.07;99595.95;2113187;82;21129;-74
2021/07/13 09:47:35;;;;;;;7.55;6.78;;;;;;;30.05;49.66;99597.91;2115620;81;21069;-74
2021/07/13 09:50:44;;;;;;;8.98;7.33;;;;;;;30.12;47.51;99591.43;2101021;81;21059;-74
2021/07/13 09:53:45;;;;;;;;;;;;;;;30.08;48.88;99580.30;2111822;81;21172;-73
2021/07/13 09:56:47;;;;;;;10.80;6.67;;;;;;;30.07;47.48;99581.97;2117010;82;20105;-75
2021/07/13 09:59:52;;;;;;;11.10;7.35;;;;;;;29.89;46.01;99570.09;2119262;82;21133;-75
2021/07/13 10:02:54;;;;;;;7.72;6.95;;;;;;;29.73;47.22;99581.11;2111949;81;21025;-73
2021/07/13 10:05:57;;;;;;;11.03;6.42;;;;;;;29.79;46.66;99575.23;2107850;81;21085;-81
2021/07/13 10:09:00;;;;;;;7.72;6.92;;;;;;;29.77;48.06;99582.93;2104716;82;21069;-75
2021/07/13 10:12:14;;;;;;;7.60;6.28;;;;;;;29.75;47.12;99572.05;2109535;82;21054;-75
2021/07/13 10:15:16;;;;;;;7.30;6.53;;;;;;;29.73;47.87;99549.67;2110099;82;21142;-73
2021/07/13 10:18:20;;;;;;;10.23;6.70;;;;;;;30.09;47.03;99569.60;2109909;81;21117;-75
2021/07/13 10:21:25;;;;;;;8.43;6.40;;;;;;;30.32;47.85;99564.16;2102152;82;21133;-72
2021/07/13 10:24:27;;;;;;;9.15;6.58;;;;;;;30.52;46.79;99565.58;2103969;82;21062;-72
2021/07/13 10:27:50;;;;;;;6.78;6.00;;;;;;;30.19;46.63;99568.56;2099237;82;21077;-72
2021/07/13 10:30:56;;;;;;;8.70;6.37;;;;;;;30.11;46.45;99574.21;2100876;81;21097;-73
2021/07/13 10:33:58;;;;;;;9.65;6.40;;;;;;;30.00;45.71;99566.56;2093429;83;21695;-72
2021/07/13 10:37:20;;;;;;;8.35;6.03;;;;;;;30.04;46.26;99565.61;2113593;82;21111;-73
2021/07/13 10:40:33;;;;;;;9.00;6.65;;;;;;;30.21;46.25;99571.78;2112010;81;21572;-75
2021/07/13 10:43:58;;;;;;;7.12;6.35;;;;;;;30.27;44.26;99562.38;2104228;81;21089;-72
2021/07/13 10:47:27;;;;;;;7.83;6.22;;;;;;;30.29;45.74;99566.96;2157225;80;21050;-75
2021/07/13 10:50:37;;;;;;;8.18;6.70;;;;;;;30.48;45.26;99557.76;2146333;80;21093;-75
2021/07/13 10:53:41;;;;;;;;;;;;;;;30.43;45.83;99559.25;2155684;80;21061;-76
2021/07/13 10:56:46;;;;;;;7.47;6.12;;;;;;;30.22;45.56;99555.66;2155555;80;20159;-75
2021/07/13 10:59:48;;;;;;;7.20;6.55;;;;;;;30.15;45.02;99555.24;2169433;80;21123;-75
2021/07/13 11:02:50;;;;;;;7.87;7.17;;;;;;;29.86;45.57;99545.53;2139443;80;22349;-77
2021/07/13 11:05:51;;;;;;;7.20;6.50;;;;;;;30.00;45.92;99546.05;2139009;81;21113;-75
2021/07/13 11:08:53;;;;;;;9.73;7.12;;;;;;;30.10;45.49;99544.42;2149162;80;21089;-70
2021/07/13 11:12:11;;;;;;;7.22;6.53;;;;;;;29.96;46.46;99549.14;2142261;80;21056;-72
2021/07/13 11:15:15;;;;;;;7.87;6.37;;;;;;;30.27;47.13;99549.23;2143916;81;21099;-77
2021/07/13 11:18:30;;;;;;;7.87;5.92;;;;;;;30.59;45.34;99544.86;2147336;80;21091;-76
2021/07/13 11:21:37;;;;;;;6.40;5.80;;;;;;;30.68;44.91;99540.80;2139746;81;21121;-77
2021/07/13 11:24:38;;;;;;;6.17;5.65;;;;;;;30.65;44.33;99546.90;2144194;81;21374;-78
2021/07/13 11:27:40;;;;;;;6.50;5.85;;;;;;;30.25;44.87;99538.63;2175055;79;21451;-77
2021/07/13 11:30:42;;;;;;;8.73;5.85;;;;;;;30.32;45.09;99547.19;2142135;81;21073;-76
2021/07/13 11:34:08;;;;;;;10.25;6.08;;;;;;;30.33;43.82;99526.13;2143460;80;21044;-82
2021/07/13 11:37:10;;;;;;;6.10;5.60;;;;;;;30.53;45.00;99528.33;2103505;80;21017;-76
2021/07/13 11:40:12;;;;;;;8.30;5.87;;;;;;;30.74;44.34;99523.67;2151906;80;22115;-77
2021/07/13 11:43:25;;;;;;;7.00;6.03;;;;;;;30.84;43.85;99527.54;2120113;81;21071;-80
2021/07/13 11:46:31;;;;;;;7.92;6.05;;;;;;;30.77;43.90;99525.20;2139108;81;21421;-78
2021/07/13 11:49:35;;;;;;;6.65;5.62;;;;;;;30.84;43.94;99519.33;2136260;80;21567;-78
2021/07/13 11:52:37;;;;;;;6.05;5.45;;;;;;;30.77;44.23;99520.30;2124435;82;21575;-77
2021/07/13 11:55:39;;;;;;;7.08;6.40;;;;;;;30.89;44.23;99512.34;2144637;81;21071;-76
2021/07/13 11:58:48;;;;;;;7.67;6.95;;;;;;;31.00;42.79;99504.62;2164629;80;21105;-77
2021/07/13 12:01:54;;;;;;;;;;;;;;;30.79;42.51;99507.94;2126273;81;21137;-78
2021/07/13 12:04:54;;;;;;;7.35;6.65;;;;;;;30.36;42.25;99510.45;2158644;80;20209;-80
2021/07/13 12:07:56;;;;;;;7.22;6.53;;;;;;;30.09;43.42;99508.63;2157439;80;21062;-78
2021/07/13 12:10:57;;;;;;;9.20;7.17;;;;;;;30.12;43.96;99502.52;2143896;80;21013;-79
2021/07/13 12:14:02;;;;;;;7.60;6.97;;;;;;;30.13;44.66;99497.33;2146852;80;21192;-77
2021/07/13 12:17:05;;;;;;;7.90;7.10;;;;;;;30.28;44.27;99498.32;2146684;80;22508;-77
2021/07/13 12:20:10;;;;;;;10.88;7.10;;;;;;;30.41;45.32;99502.64;2157622;80;21684;-80
2021/07/13 12:23:11;;;;;;;7.55;6.85;;;;;;;30.40;44.59;99495.56;2146670;80;21073;-77
2021/07/13 12:26:32;;;;;;;7.22;6.53;;;;;;;30.47;43.92;99486.36;2150816;80;21416;-77
2021/07/13 12:29:40;;;;;;;7.83;7.12;;;;;;;30.51;43.52;99483.23;2130105;80;22330;-77
2021/07/13 12:32:43;;;;;;;7.28;6.58;;;;;;;30.51;43.52;99483.23;2150176;80;21043;-78
2021/07/13 12:35:44;;;;;;;8.95;7.35;;;;;;;30.45;43.48;99479.02;2146479;80;21120;-76
2021/07/13 12:38:48;;;;;;;7.53;6.80;;;;;;;30.49;45.43;99473.95;2173724;79;21046;-79
2021/07/13 12:42:03;;;;;;;9.30;7.45;;;;;;;30.56;44.92;99478.42;2137556;80;21099;-77
2021/07/13 12:45:22;;;;;;;8.53;6.80;;;;;;;30.71;45.01;99477.19;2170566;80;21048;-77
2021/07/13 12:48:30;;;;;;;11.48;8.05;;;;;;;30.63;45.34;99482.06;2137891;80;21000;-76
2021/07/13 12:51:34;;;;;;;13.73;8.00;;;;;;;30.53;44.47;99477.69;2160036;80;21070;-78
2021/07/13 12:54:58;;;;;;;8.48;7.67;;;;;;;30.57;44.38;99472.38;2143487;80;21090;-77
2021/07/13 12:58:12;;;;;;;9.93;7.25;;;;;;;30.38;43.79;99473.98;2145454;80;21075;-78
2021/07/13 13:01:16;;;;;;;8.13;7.42;;;;;;;30.37;45.21;99477.28;2150396;80;21607;-80
2021/07/13 13:04:19;;;;;;;11.38;8.43;;;;;;;30.37;44.65;99476.48;2146019;80;21047;-77
2021/07/13 13:07:24;;;;;;;9.58;8.68;;;;;;;30.35;45.00;99470.50;2152485;80;21044;-75
2021/07/13 13:10:27;;;;;;;11.08;8.60;;;;;;;30.53;45.69;99475.52;2151474;80;21766;-77
2021/07/13 13:13:33;;;;;;;9.55;8.18;;;;;;;30.59;45.21;99479.73;2150661;80;21053;-78
2021/07/13 13:16:38;;;;;;;12.88;8.78;;;;;;;30.51;44.95;99473.08;2156524;80;21074;-75
2021/07/13 13:19:42;;;;;;;9.73;8.73;;;;;;;30.59;44.80;99476.98;2163088;80;21076;-76
2021/07/13 13:22:54;;;;;;;9.63;8.73;;;;;;;30.31;44.85;99476.37;2132689;81;21556;-76
2021/07/13 13:25:57;;;;;;;10.38;9.40;;;;;;;29.97;45.65;99475.56;2158657;80;21094;-74
2021/07/13 13:28:59;;;;;;;13.43;9.78;;;;;;;29.90;46.75;99478.72;2155379;80;21573;-76
2021/07/13 13:32:02;;;;;;;10.03;9.08;;;;;;;29.91;46.50;99472.95;2151324;80;21121;-81
2021/07/13 13:35:08;;;;;;;10.78;8.50;;;;;;;29.91;46.46;99470.78;2134683;81;21635;-76
2021/07/13 13:38:24;;;;;;;10.40;9.25;;;;;;;29.91;46.70;99460.65;2141880;81;21118;-77
2021/07/13 13:41:16;;;;;;;9.85;8.90;;;;;;;30.21;46.92;99457.44;2172404;79;21368;-77
2021/07/13 13:44:19;;;;;;;10.80;9.75;;;;;;;30.21;46.92;99457.44;2150105;80;21156;-76
2021/07/13 13:47:21;;;;;;;10.58;9.55;;;;;;;30.26;46.32;99454.04;2153496;80;21096;-76
2021/07/13 13:50:23;;;;;;;10.10;9.20;;;;;;;30.29;47.12;99454.78;2142762;80;21023;-77
2021/07/13 13:53:25;;;;;;;10.43;9.53;;;;;;;30.24;46.03;99450.83;2132757;80;21118;-78
2021/07/13 13:56:30;;;;;;;10.08;9.08;;;;;;;30.16;46.47;99444.72;2133081;81;21005;-76
2021/07/13 13:59:34;;;;;;;10.95;9.18;;;;;;;30.15;46.11;99441.16;2177276;79;22646;-74
2021/07/13 14:02:35;;;;;;;10.10;9.20;;;;;;;30.09;47.04;99441.61;2143958;80;22345;-74
2021/07/13 14:05:37;;;;;;;11.30;10.05;;;;;;;30.11;46.95;99448.95;2161656;80;21106;-79
2021/07/13 14:08:41;;;;;;;9.80;8.80;;;;;;;29.89;46.94;99418.33;2152449;80;21100;-74
2021/07/13 14:11:43;;;;;;;10.38;9.40;;;;;;;29.99;46.83;99442.69;2141753;80;21050;-78
2021/07/13 14:14:46;;;;;;;10.05;9.05;;;;;;;30.00;46.88;99444.30;2151674;80;21111;-77
2021/07/13 14:17:50;;;;;;;13.03;9.75;;;;;;;29.92;46.56;99443.11;2156148;80;21049;-76
2021/07/13 14:20:54;;;;;;;11.35;10.25;;;;;;;29.92;46.56;99443.11;2129177;81;21070;-76
2021/07/13 14:23:55;;;;;;;10.95;9.20;;;;;;;29.90;46.42;99439.91;2145110;80;21094;-76
2021/07/13 14:26:57;;;;;;;13.90;9.48;;;;;;;29.89;46.98;99443.73;2161574;80;21100;-76